sensor_id;sensor_type;location;lat;lon;timestamp;pressure;altitude;pressure_sealevel;temperature;humidity
22651;BME280;11492;42.646;23.400;2023-04-21T00:01:13;94648.16;;;9.89;73.19
22651;BME280;11492;42.646;23.400;2023-04-21T00:03:39;94651.81;;;9.80;73.23
22651;BME280;11492;42.646;23.400;2023-04-21T00:06:06;94643.03;;;9.74;73.38
22651;BME280;11492;42.646;23.400;2023-04-21T00:08:32;94639.41;;;9.69;73.31
22651;BME280;11492;42.646;23.400;2023-04-21T00:10:57;94629.97;;;9.62;73.63
22651;BME280;11492;42.646;23.400;2023-04-21T00:13:23;94624.50;;;9.50;74.32
22651;BME280;11492;42.646;23.400;2023-04-21T00:15:49;94642.19;;;9.53;73.94
22651;BME280;11492;42.646;23.400;2023-04-21T00:18:15;94637.13;;;9.45;74.36
22651;BME280;11492;42.646;23.400;2023-04-21T00:20:42;94633.31;;;9.42;74.27
22651;BME280;11492;42.646;23.400;2023-04-21T00:23:07;94643.47;;;9.43;74.84
22651;BME280;11492;42.646;23.400;2023-04-21T00:25:35;94644.19;;;9.37;74.94
22651;BME280;11492;42.646;23.400;2023-04-21T00:28:00;94645.34;;;9.35;75.09
22651;BME280;11492;42.646;23.400;2023-04-21T00:30:26;94637.28;;;9.23;75.37
22651;BME280;11492;42.646;23.400;2023-04-21T00:32:51;94652.53;;;9.25;75.42
22651;BME280;11492;42.646;23.400;2023-04-21T00:35:16;94642.41;;;9.23;76.61
22651;BME280;11492;42.646;23.400;2023-04-21T00:37:42;94642.97;;;9.19;76.38
22651;BME280;11492;42.646;23.400;2023-04-21T00:40:08;94639.13;;;9.15;76.34
22651;BME280;11492;42.646;23.400;2023-04-21T00:42:33;94644.13;;;9.17;77.31
22651;BME280;11492;42.646;23.400;2023-04-21T00:44:59;94639.50;;;9.12;76.91
22651;BME280;11492;42.646;23.400;2023-04-21T00:47:24;94647.84;;;9.14;77.56
22651;BME280;11492;42.646;23.400;2023-04-21T00:49:49;94635.69;;;9.08;77.24
22651;BME280;11492;42.646;23.400;2023-04-21T00:52:17;94641.44;;;9.10;77.38
22651;BME280;11492;42.646;23.400;2023-04-21T00:54:43;94626.28;;;9.01;76.98
22651;BME280;11492;42.646;23.400;2023-04-21T00:57:09;94638.19;;;9.02;77.72
22651;BME280;11492;42.646;23.400;2023-04-21T00:59:35;94634.19;;;8.99;78.32
22651;BME280;11492;42.646;23.400;2023-04-21T01:02:00;94640.03;;;8.94;78.24
22651;BME280;11492;42.646;23.400;2023-04-21T01:04:27;94626.28;;;8.87;78.25
22651;BME280;11492;42.646;23.400;2023-04-21T01:06:53;94632.50;;;8.92;78.33
22651;BME280;11492;42.646;23.400;2023-04-21T01:09:19;94629.22;;;8.84;78.08
22651;BME280;11492;42.646;23.400;2023-04-21T01:12:08;94638.78;;;8.90;78.98
22651;BME280;11492;42.646;23.400;2023-04-21T01:14:38;94635.78;;;8.86;78.46
22651;BME280;11492;42.646;23.400;2023-04-21T01:17:04;94632.31;;;8.79;78.44
22651;BME280;11492;42.646;23.400;2023-04-21T01:19:31;94632.31;;;8.79;78.79
22651;BME280;11492;42.646;23.400;2023-04-21T01:21:59;94627.72;;;8.75;78.71
22651;BME280;11492;42.646;23.400;2023-04-21T01:24:44;94630.56;;;8.80;78.96
22651;BME280;11492;42.646;23.400;2023-04-21T01:27:15;94632.69;;;8.76;78.89
22651;BME280;11492;42.646;23.400;2023-04-21T01:29:43;94637.81;;;8.76;78.43
22651;BME280;11492;42.646;23.400;2023-04-21T01:32:16;94637.75;;;8.70;77.67
22651;BME280;11492;42.646;23.400;2023-04-21T01:34:43;94640.03;;;8.65;77.87
22651;BME280;11492;42.646;23.400;2023-04-21T01:37:11;94623.28;;;8.55;77.29
22651;BME280;11492;42.646;23.400;2023-04-21T01:39:41;94636.13;;;8.55;77.48
22651;BME280;11492;42.646;23.400;2023-04-21T01:42:07;94624.31;;;8.46;77.79
22651;BME280;11492;42.646;23.400;2023-04-21T01:44:33;94624.78;;;8.49;78.04
22651;BME280;11492;42.646;23.400;2023-04-21T01:46:59;94615.53;;;8.41;78.09
22651;BME280;11492;42.646;23.400;2023-04-21T01:49:25;94629.00;;;8.43;78.16
22651;BME280;11492;42.646;23.400;2023-04-21T01:51:51;94625.63;;;8.42;78.67
22651;BME280;11492;42.646;23.400;2023-04-21T01:54:16;94613.00;;;8.33;79.49
22651;BME280;11492;42.646;23.400;2023-04-21T01:56:42;94619.41;;;8.37;79.70
22651;BME280;11492;42.646;23.400;2023-04-21T01:59:07;94629.00;;;8.43;79.50
22651;BME280;11492;42.646;23.400;2023-04-21T02:01:33;94627.22;;;8.43;79.61
22651;BME280;11492;42.646;23.400;2023-04-21T02:04:00;94626.78;;;8.40;78.62
22651;BME280;11492;42.646;23.400;2023-04-21T02:06:25;94632.56;;;8.42;78.82
22651;BME280;11492;42.646;23.400;2023-04-21T02:08:50;94620.06;;;8.39;78.52
22651;BME280;11492;42.646;23.400;2023-04-21T02:11:16;94615.88;;;8.38;78.33
22651;BME280;11492;42.646;23.400;2023-04-21T02:13:41;94603.44;;;8.27;78.31
22651;BME280;11492;42.646;23.400;2023-04-21T02:16:07;94624.94;;;8.34;78.10
22651;BME280;11492;42.646;23.400;2023-04-21T02:18:32;94616.75;;;8.30;78.25
22651;BME280;11492;42.646;23.400;2023-04-21T02:20:58;94614.97;;;8.31;78.41
22651;BME280;11492;42.646;23.400;2023-04-21T02:23:24;94615.16;;;8.29;78.09
22651;BME280;11492;42.646;23.400;2023-04-21T02:25:49;94620.31;;;8.29;78.45
22651;BME280;11492;42.646;23.400;2023-04-21T02:28:14;94619.50;;;8.29;78.19
22651;BME280;11492;42.646;23.400;2023-04-21T02:30:40;94612.91;;;8.26;78.39
22651;BME280;11492;42.646;23.400;2023-04-21T02:33:05;94606.78;;;8.13;78.02
22651;BME280;11492;42.646;23.400;2023-04-21T02:35:31;94616.38;;;8.19;78.57
22651;BME280;11492;42.646;23.400;2023-04-21T02:37:58;94607.41;;;8.15;78.18
22651;BME280;11492;42.646;23.400;2023-04-21T02:40:23;94618.31;;;8.17;78.13
22651;BME280;11492;42.646;23.400;2023-04-21T02:42:49;94617.06;;;8.13;77.99
22651;BME280;11492;42.646;23.400;2023-04-21T02:45:14;94614.56;;;8.05;78.03
22651;BME280;11492;42.646;23.400;2023-04-21T02:47:40;94626.09;;;8.09;78.27
22651;BME280;11492;42.646;23.400;2023-04-21T02:50:06;94622.28;;;8.05;78.33
22651;BME280;11492;42.646;23.400;2023-04-21T02:52:35;94619.06;;;8.03;78.67
22651;BME280;11492;42.646;23.400;2023-04-21T02:55:02;94619.75;;;7.97;78.75
22651;BME280;11492;42.646;23.400;2023-04-21T02:57:28;94628.53;;;8.03;78.91
22651;BME280;11492;42.646;23.400;2023-04-21T02:59:53;94628.22;;;8.06;79.05
22651;BME280;11492;42.646;23.400;2023-04-21T03:02:19;94625.47;;;8.07;79.21
22651;BME280;11492;42.646;23.400;2023-04-21T03:04:45;94618.03;;;8.12;79.56
22651;BME280;11492;42.646;23.400;2023-04-21T03:07:11;94617.69;;;8.15;79.50
22651;BME280;11492;42.646;23.400;2023-04-21T03:09:38;94623.44;;;8.17;79.95
22651;BME280;11492;42.646;23.400;2023-04-21T03:12:03;94626.66;;;8.19;80.14
22651;BME280;11492;42.646;23.400;2023-04-21T03:14:29;94620.72;;;8.19;79.94
22651;BME280;11492;42.646;23.400;2023-04-21T03:16:54;94623.56;;;8.23;80.03
22651;BME280;11492;42.646;23.400;2023-04-21T03:19:19;94632.69;;;8.26;79.90
22651;BME280;11492;42.646;23.400;2023-04-21T03:21:45;94632.19;;;8.30;79.84
22651;BME280;11492;42.646;23.400;2023-04-21T03:24:10;94633.59;;;8.33;79.38
22651;BME280;11492;42.646;23.400;2023-04-21T03:26:38;94636.44;;;8.38;78.70
22651;BME280;11492;42.646;23.400;2023-04-21T03:29:04;94627.94;;;8.37;78.61
22651;BME280;11492;42.646;23.400;2023-04-21T03:31:29;94642.66;;;8.43;78.22
22651;BME280;11492;42.646;23.400;2023-04-21T03:33:55;94641.34;;;8.47;78.61
22651;BME280;11492;42.646;23.400;2023-04-21T03:36:21;94636.28;;;8.53;78.57
22651;BME280;11492;42.646;23.400;2023-04-21T03:38:46;94622.06;;;8.43;77.98
22651;BME280;11492;42.646;23.400;2023-04-21T03:41:12;94634.34;;;8.55;78.23
22651;BME280;11492;42.646;23.400;2023-04-21T03:43:37;94641.28;;;8.55;78.02
22651;BME280;11492;42.646;23.400;2023-04-21T03:46:02;94644.47;;;8.57;78.00
22651;BME280;11492;42.646;23.400;2023-04-21T03:48:28;94642.78;;;8.64;78.04
22651;BME280;11492;42.646;23.400;2023-04-21T03:50:54;94631.25;;;8.60;77.74
22651;BME280;11492;42.646;23.400;2023-04-21T03:53:19;94641.13;;;8.71;77.58
22651;BME280;11492;42.646;23.400;2023-04-21T03:55:44;94652.19;;;8.71;77.87
22651;BME280;11492;42.646;23.400;2023-04-21T03:58:16;94654.78;;;8.71;77.39
22651;BME280;11492;42.646;23.400;2023-04-21T04:00:42;94652.81;;;8.73;77.12
22651;BME280;11492;42.646;23.400;2023-04-21T04:03:08;94658.75;;;8.73;77.42
22651;BME280;11492;42.646;23.400;2023-04-21T04:05:36;94662.50;;;8.71;77.63
22651;BME280;11492;42.646;23.400;2023-04-21T04:08:01;94649.34;;;8.66;77.21
22651;BME280;11492;42.646;23.400;2023-04-21T04:10:27;94654.69;;;8.65;77.52
22651;BME280;11492;42.646;23.400;2023-04-21T04:12:52;94661.69;;;8.71;78.09
22651;BME280;11492;42.646;23.400;2023-04-21T04:15:19;94648.47;;;8.59;78.15
22651;BME280;11492;42.646;23.400;2023-04-21T04:17:45;94661.25;;;8.67;77.60
22651;BME280;11492;42.646;23.400;2023-04-21T04:20:10;94653.91;;;8.64;77.99
22651;BME280;11492;42.646;23.400;2023-04-21T04:22:37;94670.22;;;8.71;77.87
22651;BME280;11492;42.646;23.400;2023-04-21T04:25:02;94675.78;;;8.74;77.72
22651;BME280;11492;42.646;23.400;2023-04-21T04:27:28;94674.47;;;8.78;78.13
22651;BME280;11492;42.646;23.400;2023-04-21T04:29:53;94674.75;;;8.83;78.06
22651;BME280;11492;42.646;23.400;2023-04-21T04:32:19;94667.66;;;8.85;77.36
22651;BME280;11492;42.646;23.400;2023-04-21T04:34:44;94665.09;;;8.85;77.83
22651;BME280;11492;42.646;23.400;2023-04-21T04:37:10;94689.88;;;9.00;78.04
22651;BME280;11492;42.646;23.400;2023-04-21T04:39:37;94682.13;;;9.00;78.35
22651;BME280;11492;42.646;23.400;2023-04-21T04:42:06;94689.69;;;9.16;78.49
22651;BME280;11492;42.646;23.400;2023-04-21T04:44:33;94683.44;;;9.25;78.18
22651;BME280;11492;42.646;23.400;2023-04-21T04:46:58;94692.56;;;9.42;76.72
22651;BME280;11492;42.646;23.400;2023-04-21T04:49:24;94688.75;;;9.52;74.34
22651;BME280;11492;42.646;23.400;2023-04-21T04:51:50;94680.38;;;9.64;74.17
22651;BME280;11492;42.646;23.400;2023-04-21T04:54:15;94695.44;;;9.81;74.41
22651;BME280;11492;42.646;23.400;2023-04-21T04:56:41;94686.22;;;9.87;73.47
22651;BME280;11492;42.646;23.400;2023-04-21T04:59:06;94696.84;;;9.98;74.48
22651;BME280;11492;42.646;23.400;2023-04-21T05:01:32;94693.38;;;10.05;73.11
22651;BME280;11492;42.646;23.400;2023-04-21T05:03:57;94694.22;;;10.12;72.62
22651;BME280;11492;42.646;23.400;2023-04-21T05:06:23;94688.97;;;10.20;73.19
22651;BME280;11492;42.646;23.400;2023-04-21T05:08:48;94694.78;;;10.28;71.67
22651;BME280;11492;42.646;23.400;2023-04-21T05:11:14;94694.28;;;10.39;71.60
22651;BME280;11492;42.646;23.400;2023-04-21T05:13:39;94702.69;;;10.47;71.90
22651;BME280;11492;42.646;23.400;2023-04-21T05:16:05;94698.13;;;10.49;71.77
22651;BME280;11492;42.646;23.400;2023-04-21T05:18:31;94699.00;;;10.56;71.24
22651;BME280;11492;42.646;23.400;2023-04-21T05:20:56;94698.03;;;10.57;71.01
22651;BME280;11492;42.646;23.400;2023-04-21T05:23:22;94697.22;;;10.57;70.90
22651;BME280;11492;42.646;23.400;2023-04-21T05:25:48;94693.25;;;10.61;71.36
22651;BME280;11492;42.646;23.400;2023-04-21T05:28:13;94695.50;;;10.64;70.52
22651;BME280;11492;42.646;23.400;2023-04-21T05:30:40;94696.53;;;10.69;70.38
22651;BME280;11492;42.646;23.400;2023-04-21T05:33:05;94696.16;;;10.72;70.64
22651;BME280;11492;42.646;23.400;2023-04-21T05:35:31;94690.84;;;10.80;70.95
22651;BME280;11492;42.646;23.400;2023-04-21T05:37:56;94696.00;;;10.80;70.05
22651;BME280;11492;42.646;23.400;2023-04-21T05:40:22;94698.78;;;10.78;69.82
22651;BME280;11492;42.646;23.400;2023-04-21T05:42:47;94683.34;;;10.85;70.33
22651;BME280;11492;42.646;23.400;2023-04-21T05:45:13;94689.00;;;11.01;68.92
22651;BME280;11492;42.646;23.400;2023-04-21T05:47:38;94694.59;;;11.04;68.60
22651;BME280;11492;42.646;23.400;2023-04-21T05:50:05;94682.69;;;11.03;69.32
22651;BME280;11492;42.646;23.400;2023-04-21T05:52:30;94693.50;;;11.20;68.98
22651;BME280;11492;42.646;23.400;2023-04-21T05:54:57;94700.31;;;11.27;69.17
22651;BME280;11492;42.646;23.400;2023-04-21T05:57:23;94677.22;;;11.19;69.14
22651;BME280;11492;42.646;23.400;2023-04-21T05:59:49;94680.59;;;11.20;68.92
22651;BME280;11492;42.646;23.400;2023-04-21T06:02:14;94690.81;;;11.34;69.10
22651;BME280;11492;42.646;23.400;2023-04-21T06:04:40;94685.72;;;11.40;69.00
22651;BME280;11492;42.646;23.400;2023-04-21T06:07:09;94681.34;;;11.47;68.33
22651;BME280;11492;42.646;23.400;2023-04-21T06:09:40;94684.63;;;11.62;68.31
22651;BME280;11492;42.646;23.400;2023-04-21T06:12:06;94675.91;;;11.75;67.79
22651;BME280;11492;42.646;23.400;2023-04-21T06:14:31;94663.38;;;11.79;67.83
22651;BME280;11492;42.646;23.400;2023-04-21T06:16:57;94673.16;;;11.90;68.47
22651;BME280;11492;42.646;23.400;2023-04-21T06:19:22;94684.56;;;12.01;66.33
22651;BME280;11492;42.646;23.400;2023-04-21T06:21:48;94668.41;;;11.99;63.28
22651;BME280;11492;42.646;23.400;2023-04-21T06:24:13;94679.66;;;12.32;63.48
22651;BME280;11492;42.646;23.400;2023-04-21T06:26:39;94683.84;;;12.52;63.63
22651;BME280;11492;42.646;23.400;2023-04-21T06:29:05;94677.06;;;12.57;61.28
22651;BME280;11492;42.646;23.400;2023-04-21T06:31:30;94677.69;;;12.72;61.24
22651;BME280;11492;42.646;23.400;2023-04-21T06:33:55;94676.91;;;12.84;61.25
22651;BME280;11492;42.646;23.400;2023-04-21T06:36:21;94673.50;;;13.03;61.14
22651;BME280;11492;42.646;23.400;2023-04-21T06:38:47;94660.16;;;12.99;60.29
22651;BME280;11492;42.646;23.400;2023-04-21T06:41:13;94670.47;;;13.19;60.32
22651;BME280;11492;42.646;23.400;2023-04-21T06:43:38;94660.47;;;13.35;60.51
22651;BME280;11492;42.646;23.400;2023-04-21T06:46:04;94669.81;;;13.48;59.86
22651;BME280;11492;42.646;23.400;2023-04-21T06:48:29;94661.28;;;13.42;59.75
22651;BME280;11492;42.646;23.400;2023-04-21T06:50:55;94661.06;;;13.43;58.77
22651;BME280;11492;42.646;23.400;2023-04-21T06:53:20;94665.06;;;13.39;58.56
22651;BME280;11492;42.646;23.400;2023-04-21T06:55:46;94656.44;;;13.45;58.91
22651;BME280;11492;42.646;23.400;2023-04-21T06:58:13;94656.25;;;13.53;59.23
22651;BME280;11492;42.646;23.400;2023-04-21T07:00:38;94638.88;;;13.53;59.02
22651;BME280;11492;42.646;23.400;2023-04-21T07:03:04;94658.94;;;13.77;58.63
22651;BME280;11492;42.646;23.400;2023-04-21T07:05:30;94652.88;;;13.96;58.81
22651;BME280;11492;42.646;23.400;2023-04-21T07:07:56;94656.50;;;13.95;57.42
22651;BME280;11492;42.646;23.400;2023-04-21T07:10:25;94639.28;;;14.00;57.69
22651;BME280;11492;42.646;23.400;2023-04-21T07:12:50;94661.94;;;14.17;57.30
22651;BME280;11492;42.646;23.400;2023-04-21T07:15:16;94661.88;;;14.30;57.41
22651;BME280;11492;42.646;23.400;2023-04-21T07:17:41;94653.81;;;14.07;56.88
22651;BME280;11492;42.646;23.400;2023-04-21T07:20:07;94654.66;;;14.01;56.95
22651;BME280;11492;42.646;23.400;2023-04-21T07:22:33;94645.97;;;14.20;56.21
22651;BME280;11492;42.646;23.400;2023-04-21T07:25:01;94648.06;;;14.36;56.48
22651;BME280;11492;42.646;23.400;2023-04-21T07:27:30;94644.56;;;14.48;56.00
22651;BME280;11492;42.646;23.400;2023-04-21T07:29:56;94646.97;;;14.49;55.44
22651;BME280;11492;42.646;23.400;2023-04-21T07:32:21;94654.72;;;14.56;55.52
22651;BME280;11492;42.646;23.400;2023-04-21T07:34:46;94656.19;;;14.70;54.80
22651;BME280;11492;42.646;23.400;2023-04-21T07:37:12;94651.03;;;14.63;55.50
22651;BME280;11492;42.646;23.400;2023-04-21T07:39:37;94654.84;;;14.91;55.36
22651;BME280;11492;42.646;23.400;2023-04-21T07:42:03;94649.06;;;15.13;54.70
22651;BME280;11492;42.646;23.400;2023-04-21T07:44:32;94651.16;;;15.40;54.24
22651;BME280;11492;42.646;23.400;2023-04-21T07:46:58;94645.47;;;15.49;53.62
22651;BME280;11492;42.646;23.400;2023-04-21T07:49:23;94645.41;;;15.73;52.25
22651;BME280;11492;42.646;23.400;2023-04-21T07:51:48;94657.88;;;15.83;51.75
22651;BME280;11492;42.646;23.400;2023-04-21T07:54:14;94661.72;;;15.80;51.18
22651;BME280;11492;42.646;23.400;2023-04-21T07:56:39;94653.19;;;15.91;50.90
22651;BME280;11492;42.646;23.400;2023-04-21T07:59:05;94664.94;;;15.94;51.29
22651;BME280;11492;42.646;23.400;2023-04-21T08:01:30;94656.16;;;15.77;51.66
22651;BME280;11492;42.646;23.400;2023-04-21T08:03:55;94651.00;;;15.88;51.44
22651;BME280;11492;42.646;23.400;2023-04-21T08:06:21;94665.44;;;16.20;51.76
22651;BME280;11492;42.646;23.400;2023-04-21T08:08:46;94661.19;;;16.65;49.85
22651;BME280;11492;42.646;23.400;2023-04-21T08:11:12;94650.34;;;17.02;48.69
22651;BME280;11492;42.646;23.400;2023-04-21T08:13:37;94647.06;;;16.95;48.16
22651;BME280;11492;42.646;23.400;2023-04-21T08:16:03;94645.91;;;16.80;51.02
22651;BME280;11492;42.646;23.400;2023-04-21T08:18:29;94644.94;;;17.03;49.17
22651;BME280;11492;42.646;23.400;2023-04-21T08:20:55;94649.44;;;16.96;49.78
22651;BME280;11492;42.646;23.400;2023-04-21T08:23:22;94635.72;;;17.01;48.28
22651;BME280;11492;42.646;23.400;2023-04-21T08:25:47;94641.44;;;17.32;49.18
22651;BME280;11492;42.646;23.400;2023-04-21T08:28:13;94635.72;;;17.57;48.88
22651;BME280;11492;42.646;23.400;2023-04-21T08:30:40;94641.78;;;18.08;47.14
22651;BME280;11492;42.646;23.400;2023-04-21T08:33:06;94637.13;;;18.37;44.87
22651;BME280;11492;42.646;23.400;2023-04-21T08:35:33;94636.91;;;18.71;45.85
22651;BME280;11492;42.646;23.400;2023-04-21T08:37:58;94639.00;;;18.69;43.49
22651;BME280;11492;42.646;23.400;2023-04-21T08:40:32;94645.28;;;18.57;44.31
22651;BME280;11492;42.646;23.400;2023-04-21T08:42:58;94647.94;;;18.73;44.70
22651;BME280;11492;42.646;23.400;2023-04-21T08:45:24;94637.13;;;19.13;43.69
22651;BME280;11492;42.646;23.400;2023-04-21T08:47:50;94641.50;;;19.61;42.79
22651;BME280;11492;42.646;23.400;2023-04-21T08:50:16;94633.63;;;20.20;41.93
22651;BME280;11492;42.646;23.400;2023-04-21T08:52:41;94627.63;;;20.71;40.26
22651;BME280;11492;42.646;23.400;2023-04-21T08:55:08;94625.09;;;20.81;39.58
22651;BME280;11492;42.646;23.400;2023-04-21T08:57:35;94636.72;;;20.64;39.98
22651;BME280;11492;42.646;23.400;2023-04-21T09:00:01;94630.16;;;20.61;39.26
22651;BME280;11492;42.646;23.400;2023-04-21T09:02:26;94623.13;;;20.98;39.62
22651;BME280;11492;42.646;23.400;2023-04-21T09:04:52;94620.13;;;20.84;39.31
22651;BME280;11492;42.646;23.400;2023-04-21T09:07:33;94609.91;;;20.88;39.10
22651;BME280;11492;42.646;23.400;2023-04-21T09:10:00;94618.66;;;21.29;38.69
22651;BME280;11492;42.646;23.400;2023-04-21T09:12:26;94614.25;;;20.73;39.14
22651;BME280;11492;42.646;23.400;2023-04-21T09:14:52;94606.59;;;20.97;38.97
22651;BME280;11492;42.646;23.400;2023-04-21T09:17:21;94595.81;;;21.75;38.17
22651;BME280;11492;42.646;23.400;2023-04-21T09:19:47;94600.53;;;21.78;37.52
22651;BME280;11492;42.646;23.400;2023-04-21T09:22:16;94600.91;;;21.46;38.19
22651;BME280;11492;42.646;23.400;2023-04-21T09:24:47;94603.00;;;21.44;38.72
22651;BME280;11492;42.646;23.400;2023-04-21T09:27:14;94599.16;;;21.25;37.83
22651;BME280;11492;42.646;23.400;2023-04-21T09:29:45;94589.16;;;21.17;38.25
22651;BME280;11492;42.646;23.400;2023-04-21T09:32:15;94599.31;;;21.09;38.05
22651;BME280;11492;42.646;23.400;2023-04-21T09:34:42;94596.91;;;20.72;38.97
22651;BME280;11492;42.646;23.400;2023-04-21T09:37:10;94595.28;;;20.66;39.48
22651;BME280;11492;42.646;23.400;2023-04-21T09:39:35;94596.44;;;20.48;39.30
22651;BME280;11492;42.646;23.400;2023-04-21T09:42:01;94598.84;;;20.29;38.95
22651;BME280;11492;42.646;23.400;2023-04-21T09:44:29;94585.91;;;20.23;39.58
22651;BME280;11492;42.646;23.400;2023-04-21T09:47:02;94585.22;;;20.32;38.60
22651;BME280;11492;42.646;23.400;2023-04-21T09:49:30;94594.19;;;20.36;37.76
22651;BME280;11492;42.646;23.400;2023-04-21T09:52:00;94586.94;;;20.22;38.62
22651;BME280;11492;42.646;23.400;2023-04-21T09:54:32;94586.69;;;20.23;38.28
22651;BME280;11492;42.646;23.400;2023-04-21T09:57:00;94571.25;;;20.26;38.95
22651;BME280;11492;42.646;23.400;2023-04-21T09:59:36;94582.63;;;20.37;38.60
22651;BME280;11492;42.646;23.400;2023-04-21T10:02:05;94578.28;;;20.73;38.20
22651;BME280;11492;42.646;23.400;2023-04-21T10:04:32;94577.94;;;20.96;37.34
22651;BME280;11492;42.646;23.400;2023-04-21T10:06:59;94576.88;;;20.92;37.43
22651;BME280;11492;42.646;23.400;2023-04-21T10:09:29;94575.13;;;20.71;38.13
22651;BME280;11492;42.646;23.400;2023-04-21T10:11:56;94574.78;;;20.63;37.52
22651;BME280;11492;42.646;23.400;2023-04-21T10:14:24;94573.41;;;19.82;38.99
22651;BME280;11492;42.646;23.400;2023-04-21T10:16:57;94572.50;;;19.72;38.80
22651;BME280;11492;42.646;23.400;2023-04-21T10:19:27;94565.28;;;19.84;39.04
22651;BME280;11492;42.646;23.400;2023-04-21T10:21:55;94564.41;;;19.99;38.34
22651;BME280;11492;42.646;23.400;2023-04-21T10:24:28;94552.81;;;20.73;38.20
22651;BME280;11492;42.646;23.400;2023-04-21T10:26:56;94555.75;;;21.53;36.98
22651;BME280;11492;42.646;23.400;2023-04-21T10:29:31;94550.25;;;22.35;35.57
22651;BME280;11492;42.646;23.400;2023-04-21T10:31:57;94568.69;;;22.40;36.00
22651;BME280;11492;42.646;23.400;2023-04-21T10:39:26;94562.31;;;21.51;37.80
22651;BME280;11492;42.646;23.400;2023-04-21T10:44:43;94563.09;;;21.51;37.43
22651;BME280;11492;42.646;23.400;2023-04-21T10:47:09;94541.50;;;21.45;38.00
22651;BME280;11492;42.646;23.400;2023-04-21T10:49:39;94560.94;;;21.39;38.01
22651;BME280;11492;42.646;23.400;2023-04-21T10:52:06;94564.09;;;21.46;37.81
22651;BME280;11492;42.646;23.400;2023-04-21T10:55:03;94539.75;;;21.60;37.61
22651;BME280;11492;42.646;23.400;2023-04-21T10:57:31;94553.78;;;21.80;37.40
22651;BME280;11492;42.646;23.400;2023-04-21T10:59:57;94550.91;;;21.86;37.58
22651;BME280;11492;42.646;23.400;2023-04-21T11:02:22;94565.09;;;21.85;37.37
22651;BME280;11492;42.646;23.400;2023-04-21T11:04:52;94562.19;;;21.31;37.33
22651;BME280;11492;42.646;23.400;2023-04-21T11:07:22;94564.81;;;20.39;37.19
22651;BME280;11492;42.646;23.400;2023-04-21T11:09:59;94564.25;;;19.85;38.28
22651;BME280;11492;42.646;23.400;2023-04-21T11:12:27;94559.44;;;19.40;38.88
22651;BME280;11492;42.646;23.400;2023-04-21T11:14:54;94560.72;;;19.16;40.08
22651;BME280;11492;42.646;23.400;2023-04-21T11:17:19;94565.25;;;19.42;39.33
22651;BME280;11492;42.646;23.400;2023-04-21T11:19:54;94533.22;;;20.81;37.59
22651;BME280;11492;42.646;23.400;2023-04-21T11:22:21;94546.78;;;22.00;36.40
22651;BME280;11492;42.646;23.400;2023-04-21T11:24:54;94549.09;;;21.97;37.53
22651;BME280;11492;42.646;23.400;2023-04-21T11:27:20;94556.38;;;21.75;37.97
22651;BME280;11492;42.646;23.400;2023-04-21T11:29:47;94561.44;;;21.41;37.83
22651;BME280;11492;42.646;23.400;2023-04-21T11:32:13;94562.16;;;20.96;38.49
22651;BME280;11492;42.646;23.400;2023-04-21T11:34:39;94564.09;;;20.74;39.56
22651;BME280;11492;42.646;23.400;2023-04-21T11:37:16;94553.13;;;20.77;39.63
22651;BME280;11492;42.646;23.400;2023-04-21T11:39:42;94545.81;;;20.84;39.29
22651;BME280;11492;42.646;23.400;2023-04-21T11:42:09;94552.03;;;21.09;39.59
22651;BME280;11492;42.646;23.400;2023-04-21T11:44:37;94547.16;;;21.22;39.42
22651;BME280;11492;42.646;23.400;2023-04-21T11:47:18;94542.97;;;21.26;38.76
22651;BME280;11492;42.646;23.400;2023-04-21T11:49:49;94554.38;;;21.05;39.12
22651;BME280;11492;42.646;23.400;2023-04-21T11:52:20;94564.19;;;20.84;40.04
22651;BME280;11492;42.646;23.400;2023-04-21T11:54:46;94547.22;;;20.60;40.34
22651;BME280;11492;42.646;23.400;2023-04-21T11:57:11;94556.19;;;20.43;40.97
22651;BME280;11492;42.646;23.400;2023-04-21T11:59:37;94560.28;;;20.29;41.52
22651;BME280;11492;42.646;23.400;2023-04-21T12:02:02;94559.09;;;20.16;41.33
22651;BME280;11492;42.646;23.400;2023-04-21T12:04:28;94560.16;;;19.94;42.57
22651;BME280;11492;42.646;23.400;2023-04-21T12:07:01;94556.63;;;20.04;42.46
22651;BME280;11492;42.646;23.400;2023-04-21T12:09:27;94554.84;;;20.62;39.99
22651;BME280;11492;42.646;23.400;2023-04-21T12:11:54;94543.44;;;20.82;38.50
22651;BME280;11492;42.646;23.400;2023-04-21T12:14:23;94548.72;;;21.23;37.32
22651;BME280;11492;42.646;23.400;2023-04-21T12:16:52;94539.72;;;22.20;35.99
22651;BME280;11492;42.646;23.400;2023-04-21T12:19:33;94543.44;;;22.53;34.62
22651;BME280;11492;42.646;23.400;2023-04-21T12:21:59;94535.25;;;22.35;34.84
22651;BME280;11492;42.646;23.400;2023-04-21T12:24:24;94555.97;;;22.02;35.16
22651;BME280;11492;42.646;23.400;2023-04-21T12:26:50;94558.75;;;22.86;34.75
22651;BME280;11492;42.646;23.400;2023-04-21T12:29:15;94555.91;;;24.89;30.67
22651;BME280;11492;42.646;23.400;2023-04-21T12:31:41;94543.53;;;25.91;28.78
22651;BME280;11492;42.646;23.400;2023-04-21T12:34:06;94551.22;;;25.70;28.69
22651;BME280;11492;42.646;23.400;2023-04-21T12:36:31;94544.03;;;25.19;29.84
22651;BME280;11492;42.646;23.400;2023-04-21T12:38:57;94543.81;;;24.83;29.83
22651;BME280;11492;42.646;23.400;2023-04-21T12:41:22;94553.13;;;24.33;30.81
22651;BME280;11492;42.646;23.400;2023-04-21T12:43:48;94543.50;;;23.99;31.25
22651;BME280;11492;42.646;23.400;2023-04-21T12:46:14;94542.25;;;23.82;31.49
22651;BME280;11492;42.646;23.400;2023-04-21T12:48:39;94553.16;;;23.56;32.75
22651;BME280;11492;42.646;23.400;2023-04-21T12:51:05;94552.16;;;23.18;33.12
22651;BME280;11492;42.646;23.400;2023-04-21T12:53:31;94555.06;;;22.97;32.98
22651;BME280;11492;42.646;23.400;2023-04-21T12:55:56;94542.41;;;22.59;33.25
22651;BME280;11492;42.646;23.400;2023-04-21T12:58:22;94543.94;;;22.41;34.26
22651;BME280;11492;42.646;23.400;2023-04-21T13:00:47;94543.66;;;22.18;34.57